Terminal Aerodrome Forecast
Issued by NWS

Home | Current Version | Previous Version | Graphics & Text | Print | Product List | Glossary On
Versions: 1 2 3 4 5 6 7 8 9 10 11 12 13 14 15
557
FTUS43 KIWX 201137
TAFSBN
TAF
KSBN 201137Z 2012/2112 10003KT 1/4SM FG VV001
     FM201400 16005KT 3SM BR BKN004
     FM201600 17006KT P6SM SCT015
     FM201800 18008KT P6SM SCT080=

USA.gov is the U.S. government's official web portal to all federal, state and local government web resources and services.